Aérodrome :
LOGIN :

S'inscrire | Disclaimer

   EN    FR    IT 

 










Légende :    VFR   VFR Marginal   IFR   IFR Intensif   IFR Très Intensif
Visi : 
Plafond : 
>= 8 km
>= 3000ft
5 à 8 km
1000 à 3000 ft
1500m à 5 km
500 à 1000 ft
800 à 1500m
200 à 500 ft
< 800m
< 200 ft
Symboles :   Orages  Brouillard  Fortes neiges  Fortes précipitations  Vent > 20 kt
SIGMETs :   Divers  Orages  Givrage  Turbulence  Onde Orograph.  Cendres Volcan.







- Altitude de l'aérodrome : 3368 ft


LSGC - Les Eplatures

DERNIER METAR :
  • 162220Z AUTO VRB01KT 0450 SN BKN/// M03/M03 Q1017

METARs EXPIRÉS :
  • 162150Z AUTO VRB02KT 1200 SN BKN/// M03/M03 Q1017
  • 162120Z AUTO 20001KT 0300 SN VV006 M03/M03 Q1017
  • 162050Z AUTO VRB01KT 9999 -SN BKN/// M02/M03 Q1017
  • 162020Z AUTO VRB03KT 3700 -SN BKN/// M03/M03 Q1016
  • 161950Z AUTO 30004KT 260V020 9999 BKN004 M03/M03 Q1016 RESN

TAF TAF LSGC
Valide du 16 à 15h jusqu'au 17 à 00h UTC


161425Z 1615/1624 VRB03KT 3000 -SN OVC020
PROB40
TEMPO 1615/1624 0400 SHSN VV004
Pas de NOTAMs connus pour ce terrain.



MET'MAP, la Météo Aéronautique d'un coup d'oeil ! - Copyright ORBIFLY Décembre 2007 - Disclaimer

ORBIFLY MET'MAP TEAM :

Programmation & Développement : Alexandra Zaïnal
Conception & Développement : Baudouin d'Aumeries
Co-Programmation & Développement : Marc-Olivier Méhu
Soutien technique & logistique : Manuel Goepfert

Contact : metmap@orbifly.com




SOURCES & CREDITS :

   NOAA